Time;durP1;ratioP1;P1;durP2;ratioP2;P2;SDS_P1;SDS_P2;PMS_P1;PMS_P2;Temp;Humidity;BMP_temperature;BMP_pressure;BME280_temperature;BME280_humidity;BME280_pressure;Samples;Min_cycle;Max_cycle;Signal;HPM_P1;HPM_P2
2023/10/17 00:00:45;;;;;;;1.47;0.83;;;4.30;95.60;;;2.63;86.52;100714.38;10160592;28;96641;-84
2023/10/17 00:05:23;;;;;;;1.53;0.90;;;4.30;95.40;;;2.65;86.36;100720.38;10213180;28;96639;-82
2023/10/17 00:10:30;;;;;;;2.23;0.80;;;4.30;95.30;;;2.65;86.35;100709.88;10190592;28;96798;-85
2023/10/17 00:15:37;;;;;;;1.60;0.90;;;4.30;95.20;;;2.60;85.92;100711.13;10206244;28;96562;-85
2023/10/17 00:20:43;;;;;;;3.43;1.07;;;4.30;95.00;;;2.56;85.77;100712.28;10209004;28;96606;-85
2023/10/17 00:25:49;;;;;;;2.23;0.80;;;4.20;95.00;;;2.46;85.91;100713.84;10213552;28;96508;-85
2023/10/17 00:30:54;;;;;;;2.83;1.00;;;4.10;95.10;;;2.32;85.72;100707.75;10208574;28;96670;-85
2023/10/17 00:35:58;;;;;;;2.13;0.90;;;4.10;95.60;;;2.30;86.17;100722.75;10213932;28;96565;-85
2023/10/17 00:41:05;;;;;;;3.27;1.07;;;4.00;95.30;;;2.28;86.40;100714.16;10229947;28;96605;-85
2023/10/17 00:46:11;;;;;;;2.33;0.70;;;4.00;95.50;;;2.21;86.42;100728.59;10198833;28;96487;-85
2023/10/17 00:51:33;;;;;;;2.30;1.03;;;4.00;95.50;;;2.09;86.63;100716.28;10201686;28;96739;-83
2023/10/17 00:56:37;;;;;;;1.67;0.77;;;3.80;95.60;;;2.03;86.95;100711.44;10198294;28;96576;-83
2023/10/17 01:01:41;;;;;;;2.60;1.10;;;3.70;95.80;;;2.02;87.38;100707.16;10208353;28;96886;-83
2023/10/17 01:06:54;;;;;;;3.53;0.93;;;3.70;95.90;;;2.03;87.64;100703.59;10212042;28;97382;-83
2023/10/17 01:11:58;;;;;;;2.40;0.80;;;3.70;96.00;;;2.03;87.55;100714.06;10198105;28;97218;-83
2023/10/17 01:17:14;;;;;;;3.20;1.30;;;3.70;96.00;;;1.99;87.63;100699.50;10212062;28;96799;-83
2023/10/17 01:22:17;;;;;;;2.17;0.93;;;3.70;96.10;;;1.98;88.04;100692.56;10226883;28;96506;-83
2023/10/17 01:27:21;;;;;;;4.63;0.90;;;3.70;96.30;;;1.94;87.91;100696.34;10184025;28;96502;-83
2023/10/17 01:32:27;;;;;;;3.87;1.00;;;3.60;96.30;;;1.89;88.23;100694.00;10217432;28;96611;-83
2023/10/17 01:37:30;;;;;;;1.57;1.00;;;3.60;96.40;;;1.84;88.19;100702.16;10182972;28;96640;-83
2023/10/17 01:42:34;;;;;;;1.63;1.00;;;3.50;96.30;;;1.81;87.87;100688.44;10197534;28;96657;-83
2023/10/17 01:47:38;;;;;;;5.57;1.30;;;3.50;96.40;;;1.73;88.46;100690.69;10208590;28;97240;-83
2023/10/17 01:52:42;;;;;;;4.13;1.60;;;3.40;96.50;;;1.68;89.01;100680.53;10224254;28;96481;-83
2023/10/17 01:57:48;;;;;;;2.90;1.40;;;3.30;96.70;;;1.66;89.14;100687.63;10182927;28;97595;-83
2023/10/17 02:02:54;;;;;;;3.30;1.90;;;3.30;96.90;;;1.67;89.77;100691.94;10205747;28;98147;-83
2023/10/17 02:07:59;;;;;;;4.83;1.80;;;3.30;97.30;;;1.68;90.13;100703.25;10209085;28;96715;-85
2023/10/17 02:13:04;;;;;;;3.30;2.20;;;3.30;97.60;;;1.66;90.57;100684.19;10201312;28;96644;-83
2023/10/17 02:18:15;;;;;;;6.47;2.80;;;3.30;97.90;;;1.78;91.86;100694.72;10188785;28;96739;-83
2023/10/17 02:23:19;;;;;;;6.70;2.65;;;3.40;98.30;;;1.83;92.10;100700.50;10197423;28;96580;-82
2023/10/17 02:28:24;;;;;;;4.20;2.43;;;3.50;98.30;;;1.92;93.00;100695.59;10207186;28;96583;-84
2023/10/17 02:33:29;;;;;;;5.33;2.43;;;3.60;98.60;;;1.97;92.64;100696.13;10227312;28;96584;-82
2023/10/17 02:38:33;;;;;;;5.33;2.20;;;3.60;98.80;;;1.97;92.49;100694.34;10221419;28;97757;-82
2023/10/17 02:43:46;;;;;;;5.33;2.23;;;3.70;98.50;;;2.06;93.19;100704.25;10212074;28;96874;-82
2023/10/17 02:48:51;;;;;;;4.90;2.30;;;3.70;98.60;;;2.11;93.05;100701.31;10190870;28;96558;-83
2023/10/17 02:53:59;;;;;;;3.67;2.33;;;3.80;98.90;;;2.14;92.98;100704.56;10179018;28;96537;-83
2023/10/17 03:04:13;;;;;;;7.10;2.50;;;3.80;98.70;;;2.10;92.92;100720.63;10221875;28;99399;-82
2023/10/17 03:19:48;;;;;;;4.47;2.50;;;3.70;98.80;;;1.96;92.42;100718.88;10168396;28;97376;-83
2023/10/17 03:25:02;;;;;;;7.50;3.47;;;3.60;98.80;;;1.92;92.18;100716.56;10216499;28;96536;-83
2023/10/17 03:30:14;;;;;;;5.97;3.00;;;3.60;98.90;;;1.85;92.24;100724.81;10184148;28;97742;-83
2023/10/17 03:35:21;;;;;;;6.40;3.63;;;3.60;98.90;;;1.77;92.36;100724.47;10196552;28;98034;-83
2023/10/17 03:40:35;;;;;;;7.43;3.60;;;3.50;99.00;;;1.69;92.68;100725.91;10208814;28;97152;-83
2023/10/17 03:45:52;;;;;;;8.93;3.80;;;3.40;99.10;;;1.66;92.53;100736.56;10180371;28;97471;-83
2023/10/17 03:51:08;;;;;;;7.23;3.80;;;3.40;99.00;;;1.66;92.72;100740.03;10189809;28;96544;-83
2023/10/17 03:56:23;;;;;;;9.97;3.73;;;3.40;99.10;;;1.64;92.61;100736.69;10170007;28;96575;-83
2023/10/17 04:01:27;;;;;;;6.30;3.20;;;3.40;99.30;;;1.56;93.20;100723.22;10172052;28;96633;-82
2023/10/17 04:06:41;;;;;;;8.67;4.63;;;3.20;99.30;;;1.51;93.16;100723.53;10221094;28;96656;-83
2023/10/17 04:11:46;;;;;;;12.87;4.93;;;3.20;99.50;;;1.49;93.75;100724.53;10248040;28;96615;-83
2023/10/17 04:16:49;;;;;;;10.67;4.17;;;3.20;99.80;;;1.41;94.26;100722.41;10221934;28;96471;-83
2023/10/17 04:32:19;;;;;;;9.10;3.90;;;3.10;99.90;;;1.36;95.10;100718.41;10214658;28;97654;-83
2023/10/17 04:37:32;;;;;;;7.67;3.43;;;3.00;99.90;;;1.33;95.44;100717.66;10227346;28;96858;-83
2023/10/17 04:53:38;;;;;;;9.07;3.80;;;3.10;99.90;;;1.33;95.35;100735.16;10099472;28;96612;-82
2023/10/17 05:03:53;;;;;;;10.17;4.73;;;2.90;99.90;;;1.20;95.51;100735.09;10185280;28;96685;-82
2023/10/17 06:19:08;;;;;;;7.93;3.95;;;3.50;99.90;;;1.93;97.95;100789.88;10208615;28;96522;-83
2023/10/17 06:34:44;;;;;;;6.40;2.87;;;4.00;99.90;;;2.66;98.24;100790.28;10179613;28;96650;-82
2023/10/17 06:39:49;;;;;;;5.07;2.73;;;4.30;99.90;;;2.94;97.74;100804.19;10225817;28;96465;-82
2023/10/17 06:45:07;;;;;;;6.00;2.10;;;4.60;99.90;;;3.18;97.05;100806.91;10200951;28;97296;-83
2023/10/17 06:55:28;;;;;;;7.43;3.13;;;5.10;99.90;;;3.64;95.00;100801.91;10217787;28;98563;-83
2023/10/17 07:00:51;;;;;;;4.93;2.43;;;5.40;99.90;;;3.94;94.59;100798.03;10209219;28;96707;-83
2023/10/17 07:06:10;;;;;;;3.77;2.10;;;5.60;99.90;;;4.23;93.78;100796.75;10195783;28;96602;-83
2023/10/17 07:16:33;;;;;;;5.83;2.83;;;6.20;99.90;;;4.84;92.75;100799.22;10213469;28;98297;-82
2023/10/17 07:21:56;;;;;;;14.60;3.80;;;6.50;99.90;;;5.25;91.12;100793.44;10203517;28;96635;-83
2023/10/17 07:32:32;;;;;;;9.23;4.83;;;7.50;99.90;;;7.14;85.99;100787.69;10220043;28;96594;-82
2023/10/17 07:37:54;;;;;;;4.77;2.80;;;8.30;99.50;;;7.96;79.21;100778.75;10185985;28;96601;-83
2023/10/17 07:43:00;;;;;;;7.63;3.30;;;8.90;98.50;;;8.55;75.28;100776.03;10182528;28;96475;-83
2023/10/17 07:48:25;;;;;;;7.73;3.07;;;9.40;97.60;;;8.90;73.10;100768.44;10191188;28;96854;-83
2023/10/17 07:53:32;;;;;;;7.37;3.60;;;9.80;96.70;;;9.07;68.96;100773.00;10172440;28;98635;-82
2023/10/17 07:58:41;;;;;;;5.27;2.27;;;10.10;95.70;;;9.12;68.03;100768.13;10154603;28;96565;-83
2023/10/17 08:03:54;;;;;;;6.67;2.80;;;10.30;94.70;;;8.93;65.25;100774.28;10189389;28;97444;-83
2023/10/17 08:08:59;;;;;;;6.93;2.37;;;10.30;93.60;;;8.84;64.27;100776.00;10173374;28;96639;-83
2023/10/17 08:14:09;;;;;;;5.00;2.37;;;10.30;92.90;;;8.82;64.27;100783.25;10186727;28;96730;-83
2023/10/17 08:19:13;;;;;;;5.00;2.17;;;10.40;92.30;;;8.85;65.68;100769.72;10185179;28;96825;-83
2023/10/17 08:24:26;;;;;;;5.77;2.30;;;10.40;92.30;;;8.92;64.40;100769.97;10183510;28;96714;-83
2023/10/17 08:29:31;;;;;;;2.10;1.20;;;10.60;91.60;;;9.09;61.72;100768.41;10168801;28;97698;-83
2023/10/17 08:34:42;;;;;;;3.87;1.20;;;10.70;91.00;;;9.27;60.46;100764.00;10183312;28;96526;-83
2023/10/17 08:44:50;;;;;;;3.77;1.27;;;11.00;90.00;;;9.54;60.42;100751.75;10170447;28;96581;-83
2023/10/17 08:49:54;;;;;;;3.83;1.50;;;11.10;87.60;;;9.62;60.00;100762.44;10168736;28;96598;-83
2023/10/17 08:54:58;;;;;;;2.53;1.13;;;11.20;88.40;;;9.59;59.48;100760.91;10189146;28;96525;-83
2023/10/17 09:05:17;;;;;;;2.50;1.33;;;11.30;86.80;;;9.70;58.66;100761.69;10202235;28;98785;-83
2023/10/17 09:10:50;;;;;;;3.80;1.37;;;11.30;86.50;;;9.76;58.46;100756.63;10216868;28;98646;-83
2023/10/17 09:16:08;;;;;;;3.77;1.03;;;11.40;85.60;;;9.82;56.57;100768.47;10203339;28;96657;-83
2023/10/17 09:21:14;;;;;;;2.07;1.10;;;11.50;84.70;;;9.99;56.39;100762.34;10193774;28;97559;-83
2023/10/17 09:26:20;;;;;;;4.67;1.30;;;11.60;84.90;;;10.10;56.78;100758.66;10214279;28;96676;-83
2023/10/17 09:31:26;;;;;;;3.10;1.20;;;11.70;83.80;;;10.37;55.99;100747.13;10229129;28;96631;-83
2023/10/17 09:36:33;;;;;;;7.83;1.30;;;12.00;83.70;;;10.63;55.24;100747.19;10204937;28;96682;-83
2023/10/17 09:41:37;;;;;;;3.27;1.30;;;12.20;82.60;;;10.93;54.30;100738.75;10213288;28;96585;-83
2023/10/17 09:46:46;;;;;;;2.70;0.97;;;12.50;82.00;;;11.15;52.48;100736.53;10213577;28;96576;-83
2023/10/17 09:51:55;;;;;;;2.40;1.20;;;12.80;80.10;;;11.31;52.59;100722.50;10174559;28;96452;-83
2023/10/17 09:57:02;;;;;;;2.20;1.00;;;13.00;78.90;;;11.50;51.07;100712.41;10181120;28;96496;-83
2023/10/17 10:02:09;;;;;;;3.87;1.63;;;13.20;77.60;;;11.51;50.68;100707.91;10189336;28;97572;-84
2023/10/17 10:07:22;;;;;;;2.83;1.37;;;13.30;76.90;;;11.55;50.67;100706.63;10140343;28;96759;-84
2023/10/17 10:12:26;;;;;;;2.53;1.00;;;13.30;76.40;;;11.70;51.12;100696.19;10173555;28;96496;-83
2023/10/17 10:17:46;;;;;;;2.40;1.00;;;13.50;76.50;;;12.00;51.08;100690.28;10196972;28;96657;-83
2023/10/17 10:22:51;;;;;;;4.07;1.30;;;13.70;76.70;;;12.34;50.52;100681.28;10181389;28;96488;-83
2023/10/17 10:28:25;;;;;;;3.50;1.63;;;14.10;76.90;;;12.52;49.21;100676.59;10212229;28;96541;-83
2023/10/17 10:33:31;;;;;;;3.08;1.40;;;14.30;75.70;;;12.47;47.94;100676.25;10193821;28;96585;-83
2023/10/17 10:38:38;;;;;;;2.35;1.27;;;14.30;74.40;;;12.30;47.26;100678.13;10211828;28;96585;-83
2023/10/17 10:43:42;;;;;;;3.50;1.05;;;14.10;73.20;;;12.20;48.46;100669.47;10179054;28;98066;-83
2023/10/17 10:48:48;;;;;;;3.80;1.30;;;14.00;73.90;;;12.44;48.91;100657.94;10171913;28;97800;-83
2023/10/17 10:53:56;;;;;;;3.17;1.10;;;14.20;74.20;;;12.69;47.48;100649.91;10187398;28;96889;-83
2023/10/17 10:59:02;;;;;;;1.65;0.95;;;14.40;73.00;;;12.93;48.21;100641.00;10188813;28;96919;-83
2023/10/17 11:04:07;;;;;;;2.67;1.23;;;14.70;73.10;;;13.21;47.29;100628.09;10212646;28;96656;-84
2023/10/17 11:09:16;;;;;;;3.75;1.50;;;15.00;72.60;;;13.56;46.65;100629.38;10205209;28;97776;-84
2023/10/17 11:14:21;;;;;;;5.57;1.35;;;15.60;71.30;;;13.81;45.65;100633.53;10200095;28;97426;-83
2023/10/17 11:19:28;;;;;;;4.03;1.17;;;16.00;70.70;;;14.06;46.04;100628.84;10197823;28;96411;-84
2023/10/17 11:24:33;;;;;;;1.85;0.93;;;16.40;71.00;;;14.59;42.85;100619.00;10182996;28;97360;-84
2023/10/17 11:29:38;;;;;;;8.02;1.90;;;16.90;69.50;;;15.17;44.31;100611.09;10186226;28;96662;-84
2023/10/17 11:34:46;;;;;;;2.95;1.27;;;17.40;70.80;;;15.72;40.99;100594.44;10155878;28;97082;-84
2023/10/17 11:39:52;;;;;;;2.00;1.08;;;18.00;67.50;;;16.10;40.96;100586.09;10211031;28;96718;-84
2023/10/17 11:44:56;;;;;;;2.63;1.10;;;18.20;65.70;;;15.95;38.86;100583.53;10223961;28;96733;-84
2023/10/17 11:50:00;;;;;;;2.13;0.90;;;18.20;63.10;;;15.71;40.07;100600.84;10208653;28;96532;-84
2023/10/17 11:55:11;;;;;;;2.70;0.93;;;17.70;63.70;;;15.38;40.18;100595.09;10218671;28;98219;-83
2023/10/17 12:05:22;;;;;;;1.73;0.90;;;16.50;63.00;;;14.18;41.73;100581.94;10200053;28;96760;-83
2023/10/17 12:10:28;;;;;;;3.03;1.30;;;15.80;63.00;;;13.62;41.99;100577.94;10196795;28;96480;-84
2023/10/17 12:15:34;;;;;;;3.60;1.05;;;15.30;62.90;;;13.12;42.92;100572.03;10224516;28;96597;-83
2023/10/17 12:20:42;;;;;;;9.95;2.85;;;14.80;63.30;;;12.83;44.46;100569.19;10198657;28;96718;-83
2023/10/17 12:25:45;;;;;;;50.83;23.20;;;14.50;64.30;;;12.65;44.60;100563.25;10169403;28;96523;-84
2023/10/17 12:30:49;;;;;;;11.43;4.93;;;14.30;64.50;;;12.47;44.86;100552.81;10212002;28;96614;-83
2023/10/17 12:35:53;;;;;;;10.67;4.33;;;14.10;64.80;;;12.35;44.92;100551.53;10210658;28;98664;-83
2023/10/17 12:40:57;;;;;;;9.27;4.27;;;14.00;65.00;;;12.27;45.30;100534.56;10223726;28;97700;-83
2023/10/17 12:46:01;;;;;;;81.43;34.20;;;13.90;65.20;;;12.25;45.45;100538.41;10198061;28;96725;-83
2023/10/17 12:51:11;;;;;;;13.67;6.60;;;13.90;65.40;;;12.24;45.46;100536.75;10181693;28;96570;-83
2023/10/17 12:56:17;;;;;;;9.52;3.67;;;13.80;65.60;;;12.22;45.59;100531.56;10209175;28;96590;-83
2023/10/17 13:01:28;;;;;;;3.87;1.77;;;13.80;65.60;;;12.11;45.50;100531.91;10214935;28;96548;-83
2023/10/17 13:06:31;;;;;;;3.70;1.43;;;13.70;65.50;;;12.05;45.74;100532.59;10224266;28;97821;-83
2023/10/17 13:11:35;;;;;;;26.20;10.03;;;13.70;65.70;;;12.05;46.51;100533.47;10218735;28;96667;-83
2023/10/17 13:16:40;;;;;;;4.27;2.10;;;13.60;66.10;;;12.00;46.17;100522.47;10201138;28;98411;-83
2023/10/17 13:21:45;;;;;;;3.27;1.50;;;13.60;65.90;;;11.98;45.56;100519.13;10194146;28;96682;-83
2023/10/17 13:26:49;;;;;;;2.23;1.10;;;13.60;65.90;;;12.00;46.02;100508.31;10213798;28;96662;-83
2023/10/17 13:31:58;;;;;;;2.10;1.00;;;13.60;66.30;;;11.92;45.61;100519.81;10228194;28;96632;-83
2023/10/17 13:37:05;;;;;;;3.80;1.30;;;13.50;65.80;;;11.85;45.47;100513.50;10219246;28;98438;-83
2023/10/17 13:42:09;;;;;;;2.10;1.10;;;13.50;65.70;;;11.85;45.77;100524.16;10226924;28;96583;-83
2023/10/17 13:47:13;;;;;;;2.27;0.93;;;13.50;65.90;;;11.89;46.12;100520.16;10227050;28;97345;-83
2023/10/17 13:52:17;;;;;;;2.40;1.13;;;13.50;66.10;;;11.93;45.85;100513.47;10176635;28;96675;-83
2023/10/17 13:57:21;;;;;;;2.93;1.33;;;13.50;66.10;;;11.91;45.88;100512.81;10213025;28;97301;-84
2023/10/17 14:02:25;;;;;;;2.67;0.83;;;13.50;66.00;;;11.91;46.16;100501.34;10217230;28;97195;-84
2023/10/17 14:07:30;;;;;;;1.87;0.93;;;13.50;66.20;;;11.90;46.75;100492.53;10204811;28;96824;-83
2023/10/17 14:12:38;;;;;;;4.37;1.30;;;13.50;66.50;;;11.86;46.74;100504.50;10212408;28;97132;-84
2023/10/17 14:17:46;;;;;;;11.17;4.90;;;13.50;66.60;;;11.77;46.94;100505.50;10227705;28;96735;-84
2023/10/17 14:23:08;;;;;;;4.97;2.40;;;13.40;66.70;;;11.73;47.43;100498.84;10181316;28;96544;-84
2023/10/17 14:28:12;;;;;;;6.10;2.20;;;13.40;67.10;;;11.72;47.74;100500.66;10183787;28;96842;-84
2023/10/17 14:33:16;;;;;;;3.43;1.40;;;13.40;67.20;;;11.68;47.24;100490.50;10219549;28;96441;-83
2023/10/17 14:38:20;;;;;;;5.00;2.10;;;13.30;67.20;;;11.69;47.62;100497.50;10211615;28;96637;-83
2023/10/17 14:43:27;;;;;;;6.20;2.20;;;13.30;67.40;;;11.69;48.56;100487.69;10213381;28;96448;-83
2023/10/17 14:48:31;;;;;;;4.73;2.43;;;13.30;67.90;;;11.67;49.02;100484.38;10211672;28;96420;-83
2023/10/17 14:53:34;;;;;;;6.83;2.53;;;13.30;68.20;;;11.66;49.74;100490.69;10227140;28;96755;-83
2023/10/17 14:58:53;;;;;;;7.67;3.67;;;13.30;68.60;;;11.65;50.46;100481.03;10224409;28;97048;-83
2023/10/17 15:03:59;;;;;;;9.80;4.00;;;13.30;69.20;;;11.62;50.88;100478.72;10225807;28;97180;-83
2023/10/17 15:09:13;;;;;;;5.93;2.37;;;13.20;69.60;;;11.56;50.81;100487.34;10226546;28;96643;-83
2023/10/17 15:14:18;;;;;;;5.03;2.00;;;13.20;70.00;;;11.47;51.17;100481.22;10208012;28;96752;-82
2023/10/17 15:19:22;;;;;;;4.53;2.27;;;13.00;70.20;;;11.34;51.57;100488.88;10216723;28;97910;-83
2023/10/17 15:24:25;;;;;;;9.97;4.30;;;12.90;70.60;;;11.16;51.81;100490.84;10218967;28;97253;-82
2023/10/17 15:29:32;;;;;;;12.53;6.30;;;12.70;70.90;;;10.92;52.07;100486.31;10238951;28;97627;-83
2023/10/17 15:34:38;;;;;;;24.03;10.37;;;12.50;71.40;;;10.67;53.78;100480.91;10195757;28;97116;-83
2023/10/17 15:39:41;;;;;;;61.90;20.53;;;12.20;72.30;;;10.40;55.02;100489.97;10200566;28;98065;-83
2023/10/17 15:44:46;;;;;;;37.37;14.90;;;11.90;73.40;;;10.13;56.44;100500.75;10176892;28;96576;-83
2023/10/17 15:49:50;;;;;;;56.40;22.77;;;11.60;74.30;;;9.85;57.61;100503.59;10191096;28;96661;-82
2023/10/17 15:54:54;;;;;;;75.47;27.90;;;11.30;75.20;;;9.60;58.76;100507.06;10209213;28;96566;-83
2023/10/17 15:59:58;;;;;;;52.20;21.93;;;11.00;75.90;;;9.37;59.86;100512.00;10229619;28;96777;-83
2023/10/17 16:05:04;;;;;;;42.37;19.67;;;10.80;76.90;;;9.15;61.09;100515.94;10194295;28;97845;-83
2023/10/17 16:10:13;;;;;;;29.63;12.70;;;10.60;77.70;;;8.95;61.88;100517.06;10207900;28;97009;-83
2023/10/17 16:15:17;;;;;;;19.80;9.63;;;10.40;78.30;;;8.75;61.65;100525.09;10208867;28;96633;-82
2023/10/17 16:20:21;;;;;;;42.07;13.53;;;10.30;78.60;;;8.64;62.60;100525.31;10162991;28;97124;-83
2023/10/17 16:25:24;;;;;;;14.80;5.07;;;10.10;79.20;;;8.57;63.05;100524.22;10197660;28;97722;-83
2023/10/17 16:30:28;;;;;;;6.10;3.37;;;10.00;79.40;;;8.47;62.95;100512.84;10187559;28;98258;-82
2023/10/17 16:35:35;;;;;;;6.10;3.30;;;10.00;79.60;;;8.38;62.88;100532.25;10191269;28;96748;-82
2023/10/17 16:40:46;;;;;;;6.23;3.17;;;9.90;79.70;;;8.23;63.08;100521.28;10179074;28;98671;-83
2023/10/17 16:45:55;;;;;;;10.00;3.03;;;9.80;79.70;;;8.16;63.52;100525.50;10218118;28;96660;-83
2023/10/17 16:50:59;;;;;;;7.40;2.90;;;9.70;79.90;;;8.15;63.66;100529.09;10189851;28;96582;-82
2023/10/17 16:56:04;;;;;;;7.13;3.60;;;9.70;80.00;;;8.13;63.56;100523.97;10148298;28;96640;-82
2023/10/17 17:01:09;;;;;;;8.37;3.07;;;9.70;80.20;;;8.09;64.21;100525.22;10224370;28;96791;-83
2023/10/17 17:06:14;;;;;;;12.57;5.63;;;9.70;80.30;;;8.04;66.12;100527.47;10203576;28;97109;-82
2023/10/17 17:11:18;;;;;;;6.70;3.27;;;9.60;81.40;;;7.93;66.10;100520.53;10182123;28;98202;-83
2023/10/17 17:16:21;;;;;;;8.20;3.80;;;9.50;81.50;;;7.90;66.23;100514.69;10198654;28;98200;-83
2023/10/17 17:21:26;;;;;;;8.63;4.27;;;9.50;82.00;;;7.82;66.31;100518.06;10189728;28;96568;-83
2023/10/17 17:26:30;;;;;;;20.67;8.67;;;9.40;82.10;;;7.76;68.19;100519.44;10231056;28;96399;-83
2023/10/17 17:31:36;;;;;;;20.30;8.60;;;9.30;83.30;;;7.67;69.23;100522.94;10217454;28;96681;-83
2023/10/17 17:36:40;;;;;;;15.30;6.73;;;9.20;83.80;;;7.59;69.88;100521.97;10214098;28;96477;-83
2023/10/17 17:41:44;;;;;;;13.20;5.93;;;9.10;84.60;;;7.50;70.18;100518.38;10205040;28;96985;-83
2023/10/17 17:46:49;;;;;;;18.47;7.57;;;9.00;84.80;;;7.47;70.01;100523.94;10213086;28;96514;-83
2023/10/17 17:51:54;;;;;;;23.33;8.00;;;8.90;85.20;;;7.42;69.95;100532.28;10221660;28;96618;-83
2023/10/17 17:56:58;;;;;;;28.87;10.40;;;8.90;85.10;;;7.43;69.93;100533.94;10190243;28;96590;-83
2023/10/17 18:02:03;;;;;;;25.57;8.97;;;8.90;85.20;;;7.39;70.02;100531.72;10199793;28;96589;-83
2023/10/17 18:07:08;;;;;;;17.57;7.10;;;8.90;85.20;;;7.37;70.16;100538.94;10211056;28;97177;-83
2023/10/17 18:12:15;;;;;;;15.97;6.03;;;8.90;85.50;;;7.34;70.04;100544.53;10226390;28;96868;-83
2023/10/17 18:17:19;;;;;;;19.97;7.40;;;8.80;85.50;;;7.31;69.37;100542.97;10180428;28;97366;-82
2023/10/17 18:22:24;;;;;;;13.40;6.33;;;8.80;85.30;;;7.27;69.75;100532.84;10199452;28;97443;-83
2023/10/17 18:27:27;;;;;;;16.37;6.87;;;8.80;85.50;;;7.22;69.43;100538.53;10199413;28;96704;-83
2023/10/17 18:32:31;;;;;;;17.73;7.17;;;8.80;86.00;;;7.17;69.19;100536.31;10187041;28;96543;-83
2023/10/17 18:37:39;;;;;;;14.77;6.53;;;8.70;85.40;;;7.09;69.82;100536.16;10206606;28;96636;-83
2023/10/17 18:42:42;;;;;;;17.70;6.27;;;8.70;85.70;;;6.98;70.42;100537.13;10216158;28;97617;-83
2023/10/17 18:47:48;;;;;;;14.50;6.43;;;8.60;86.20;;;6.87;71.37;100541.69;10198218;28;96963;-83
2023/10/17 18:52:53;;;;;;;10.83;4.50;;;8.40;86.60;;;6.78;70.82;100537.19;10184615;28;96634;-82
2023/10/17 18:57:57;;;;;;;16.43;5.37;;;8.30;86.60;;;6.75;71.01;100546.22;10214233;28;96615;-82
2023/10/17 19:03:01;;;;;;;20.03;6.93;;;8.30;86.80;;;6.66;71.97;100554.97;10203092;28;98160;-82
2023/10/17 19:08:08;;;;;;;14.50;5.13;;;8.20;87.20;;;6.60;71.70;100564.28;10196830;28;98906;-82
2023/10/17 19:13:12;;;;;;;9.13;4.17;;;8.10;87.30;;;6.56;72.15;100560.22;10175642;28;96694;-82
2023/10/17 19:18:16;;;;;;;9.40;3.60;;;8.10;87.80;;;6.50;72.72;100571.31;10162859;28;96818;-82
2023/10/17 19:23:20;;;;;;;10.00;4.27;;;8.00;88.00;;;6.43;73.26;100564.88;10180060;28;98034;-82
2023/10/17 19:28:24;;;;;;;9.23;3.90;;;8.00;88.30;;;6.40;73.52;100550.13;10134537;28;96790;-82
2023/10/17 19:33:28;;;;;;;8.33;3.43;;;7.90;88.50;;;6.38;74.16;100556.53;10157394;28;96620;-82
2023/10/17 19:38:31;;;;;;;7.37;3.70;;;7.90;89.00;;;6.34;74.87;100558.59;10151207;28;97294;-82
2023/10/17 19:43:35;;;;;;;10.07;4.07;;;7.90;89.50;;;6.29;75.20;100547.56;10172023;28;96665;-82
2023/10/17 19:48:43;;;;;;;8.83;3.90;;;7.80;89.90;;;6.26;75.80;100547.84;10142957;28;98865;-82
2023/10/17 19:53:48;;;;;;;11.20;3.97;;;7.80;90.30;;;6.24;76.30;100538.38;10144838;28;96535;-83
2023/10/17 19:58:51;;;;;;;8.33;3.60;;;7.80;90.20;;;6.21;75.96;100528.09;10157118;28;97602;-82
2023/10/17 20:03:55;;;;;;;7.60;4.07;;;7.80;90.20;;;6.21;76.47;100528.94;10137504;28;97010;-82
2023/10/17 20:09:00;;;;;;;7.83;3.17;;;7.80;90.30;;;6.20;76.17;100522.00;10157542;28;96644;-83
2023/10/17 20:14:04;;;;;;;8.27;4.00;;;7.80;90.30;;;6.13;76.76;100526.97;10150321;28;96693;-83
2023/10/17 20:19:07;;;;;;;7.67;4.03;;;7.70;90.60;;;6.01;78.42;100533.28;10174337;28;96726;-82
2023/10/17 20:24:12;;;;;;;11.33;4.87;;;7.60;91.00;;;5.95;77.69;100539.09;10138607;28;96738;-83
2023/10/17 20:29:16;;;;;;;15.30;5.13;;;7.50;90.90;;;5.91;77.95;100527.09;10160058;28;96713;-82
2023/10/17 20:34:20;;;;;;;11.53;4.63;;;7.50;90.90;;;5.90;78.01;100530.69;10140984;28;96721;-82
2023/10/17 20:39:26;;;;;;;14.27;4.50;;;7.40;90.90;;;5.84;78.66;100524.13;10131484;28;96678;-82
2023/10/17 20:44:30;;;;;;;11.73;3.97;;;7.40;91.10;;;5.76;78.80;100525.75;10116228;28;96960;-82
2023/10/17 20:49:34;;;;;;;9.80;4.27;;;7.30;91.30;;;5.65;78.91;100516.09;10124895;28;96720;-82
2023/10/17 20:54:40;;;;;;;7.60;3.63;;;7.20;91.30;;;5.52;79.14;100528.63;10162296;28;98444;-82
2023/10/17 20:59:44;;;;;;;9.27;3.80;;;7.00;91.50;;;5.36;79.19;100515.88;10141053;28;96705;-82
2023/10/17 21:04:47;;;;;;;8.87;3.73;;;6.90;91.50;;;5.22;79.45;100506.47;10174761;28;97583;-82
2023/10/17 21:09:51;;;;;;;8.53;3.73;;;6.70;91.60;;;5.09;79.19;100514.53;10137400;28;98135;-82
2023/10/17 21:14:55;;;;;;;7.37;3.73;;;6.60;91.70;;;4.98;79.30;100519.84;10176912;28;96602;-82
2023/10/17 21:20:00;;;;;;;6.50;3.60;;;6.60;91.90;;;4.88;80.04;100521.53;10206728;28;96620;-82
2023/10/17 21:25:05;;;;;;;5.80;3.13;;;6.40;91.90;;;4.77;80.50;100509.22;10201759;28;96866;-82
2023/10/17 21:30:12;;;;;;;9.60;3.20;;;6.30;92.10;;;4.68;80.39;100509.97;10204880;28;96668;-82
2023/10/17 21:35:15;;;;;;;6.90;2.40;;;6.30;92.20;;;4.61;80.43;100505.31;10191242;28;97483;-82
2023/10/17 21:40:19;;;;;;;6.23;2.80;;;6.20;92.20;;;4.54;80.60;100510.22;10191670;28;96773;-82
2023/10/17 21:45:23;;;;;;;6.30;2.90;;;6.10;92.30;;;4.43;81.17;100511.06;10181724;28;96520;-82
2023/10/17 21:50:26;;;;;;;8.23;3.47;;;6.00;92.50;;;4.29;81.31;100506.91;10174147;28;97543;-83
2023/10/17 21:55:30;;;;;;;6.30;3.43;;;5.90;92.50;;;4.21;81.81;100505.84;10184232;28;96619;-83
2023/10/17 22:05:40;;;;;;;6.87;3.50;;;5.70;92.80;;;4.09;82.51;100526.03;10187288;28;96572;-82
2023/10/17 22:10:45;;;;;;;6.37;3.10;;;5.70;92.90;;;4.06;82.42;100514.91;10194991;28;96712;-82
2023/10/17 22:15:49;;;;;;;5.67;3.03;;;5.60;92.90;;;4.01;82.14;100508.19;10198335;28;96693;-82
2023/10/17 22:20:53;;;;;;;8.13;2.90;;;5.60;92.90;;;3.98;82.31;100505.81;10197490;28;96509;-82
2023/10/17 22:25:56;;;;;;;8.13;2.93;;;5.60;92.90;;;3.92;83.20;100505.44;10199889;28;96571;-82
2023/10/17 22:31:00;;;;;;;8.63;3.73;;;5.60;93.10;;;3.87;82.73;100500.53;10174098;28;98181;-83
2023/10/17 22:36:11;;;;;;;8.77;2.80;;;5.50;93.10;;;3.76;82.89;100517.13;10189551;28;96639;-83
2023/10/17 22:41:15;;;;;;;4.32;2.15;;;5.40;93.20;;;3.71;83.12;100531.56;10182816;28;96905;-83
2023/10/17 22:46:19;;;;;;;7.00;2.57;;;5.30;93.30;;;3.62;83.36;100537.53;10197626;28;97428;-82
2023/10/17 22:51:23;;;;;;;4.93;2.73;;;5.20;93.50;;;3.51;83.50;100527.81;10186060;28;96603;-83
2023/10/17 22:56:27;;;;;;;4.77;2.30;;;5.10;93.50;;;3.45;83.62;100523.84;10178434;28;96730;-82
2023/10/17 23:01:31;;;;;;;6.07;2.73;;;5.10;93.70;;;3.37;84.48;100528.00;10196994;28;97032;-83
2023/10/17 23:06:34;;;;;;;8.40;2.90;;;5.00;94.00;;;3.30;84.75;100535.50;10187388;28;96608;-82
2023/10/17 23:11:38;;;;;;;9.10;3.70;;;4.90;94.20;;;3.26;85.25;100544.56;10191959;28;96717;-82
2023/10/17 23:16:42;;;;;;;7.30;3.00;;;4.90;94.20;;;3.24;85.18;100546.47;10198261;28;98728;-82
2023/10/17 23:21:45;;;;;;;7.97;3.47;;;4.90;94.40;;;3.24;85.17;100543.84;10209489;28;96648;-82
2023/10/17 23:26:49;;;;;;;7.30;3.30;;;4.80;94.30;;;3.20;85.43;100551.09;10189563;28;96987;-82
2023/10/17 23:31:52;;;;;;;6.17;3.00;;;4.80;94.50;;;3.14;85.32;100542.84;10203975;28;97475;-82
2023/10/17 23:36:57;;;;;;;6.63;3.27;;;4.70;94.60;;;3.05;86.13;100532.97;10192604;28;96543;-82
2023/10/17 23:42:01;;;;;;;8.03;3.47;;;4.60;94.70;;;2.94;86.09;100534.63;10207615;28;98173;-82
2023/10/17 23:47:11;;;;;;;7.23;3.23;;;4.60;95.00;;;2.90;86.49;100538.41;10201324;28;96537;-82
2023/10/17 23:52:17;;;;;;;10.60;3.33;;;4.50;95.10;;;2.90;86.02;100537.56;10207406;28;96762;-82